Time;durP1;ratioP1;P1;durP2;ratioP2;P2;SDS_P1;SDS_P2;PMS_P1;PMS_P2;Temp;Humidity;BMP_temperature;BMP_pressure;BME280_temperature;BME280_humidity;BME280_pressure;Samples;Min_cycle;Max_cycle;Signal;HPM_P1;HPM_P2
2022/04/03 00:01:37;;;;;;;6.90;3.43;;;;;;;;;;5057486;28;20578;-65
2022/04/03 00:04:04;;;;;;;5.13;3.03;;;;;;;;;;5039517;28;20193;-64
2022/04/03 00:06:30;;;;;;;8.17;3.30;;;;;;;;;;5057515;28;20202;-65
2022/04/03 00:08:56;;;;;;;6.63;3.40;;;;;;;;;;5057717;28;20472;-64
2022/04/03 00:11:23;;;;;;;5.13;3.67;;;;;;;;;;5057227;28;20642;-65
2022/04/03 00:13:49;;;;;;;6.63;3.40;;;;;;;;;;5056403;28;20409;-65
2022/04/03 00:16:15;;;;;;;4.43;3.33;;;;;;;;;;5039288;28;20431;-66
2022/04/03 00:18:41;;;;;;;4.90;3.20;;;;;;;;;;5057426;28;20412;-65
2022/04/03 00:21:08;;;;;;;4.27;3.10;;;;;;;;;;5056727;28;20409;-68
2022/04/03 00:23:34;;;;;;;5.07;3.50;;;;;;;;;;5056886;28;20420;-65
2022/04/03 00:26:00;;;;;;;8.27;3.87;;;;;;;;;;5057293;28;20839;-64
2022/04/03 00:28:28;;;;;;;4.30;3.50;;;;;;;;;;5038979;28;20415;-65
2022/04/03 00:30:54;;;;;;;4.63;3.63;;;;;;;;;;5057056;28;20166;-65
2022/04/03 00:33:20;;;;;;;4.77;3.83;;;;;;;;;;5056776;28;20425;-67
2022/04/03 00:35:46;;;;;;;5.83;3.90;;;;;;;;;;5038851;28;20185;-64
2022/04/03 00:38:12;;;;;;;4.37;3.13;;;;;;;;;;5057085;28;20213;-65
2022/04/03 00:40:38;;;;;;;4.27;2.87;;;;;;;;;;5056692;28;20413;-65
2022/04/03 00:43:04;;;;;;;5.37;3.70;;;;;;;;;;5038809;28;20333;-65
2022/04/03 00:45:30;;;;;;;5.10;3.83;;;;;;;;;;5056587;28;20182;-64
2022/04/03 00:47:56;;;;;;;4.70;3.20;;;;;;;;;;5056584;28;20206;-65
2022/04/03 00:50:22;;;;;;;5.47;4.20;;;;;;;;;;5056707;28;20401;-65
2022/04/03 00:52:48;;;;;;;10.00;5.50;;;;;;;;;;5038401;28;20290;-64
2022/04/03 00:55:15;;;;;;;9.50;5.77;;;;;;;;;;5038472;28;20421;-66
2022/04/03 00:57:44;;;;;;;7.63;5.40;;;;;;;;;;5056471;28;20951;-65
2022/04/03 01:00:12;;;;;;;4.10;2.87;;;;;;;;;;5056412;28;20483;-65
2022/04/03 01:02:38;;;;;;;6.07;3.30;;;;;;;;;;5038032;28;20926;-65
2022/04/03 01:05:05;;;;;;;4.00;3.30;;;;;;;;;;5038324;28;20513;-63
2022/04/03 01:07:31;;;;;;;6.33;3.10;;;;;;;;;;5038518;28;20467;-65
2022/04/03 01:09:57;;;;;;;4.30;2.83;;;;;;;;;;5056524;28;20919;-67
2022/04/03 01:12:23;;;;;;;6.67;3.80;;;;;;;;;;5038275;28;20523;-68
2022/04/03 01:14:49;;;;;;;5.20;3.60;;;;;;;;;;5056394;28;20217;-70
2022/04/03 01:17:15;;;;;;;4.87;4.33;;;;;;;;;;5038057;28;20582;-65
2022/04/03 01:19:41;;;;;;;5.13;3.30;;;;;;;;;;5055993;28;20185;-65
2022/04/03 01:22:08;;;;;;;6.90;3.90;;;;;;;;;;5056363;28;20798;-65
2022/04/03 01:24:34;;;;;;;6.07;3.90;;;;;;;;;;5056107;28;20416;-65
2022/04/03 01:27:00;;;;;;;6.33;3.80;;;;;;;;;;5056202;28;20460;-64
2022/04/03 01:29:26;;;;;;;4.27;3.10;;;;;;;;;;5056035;28;20410;-65
2022/04/03 01:31:52;;;;;;;4.20;3.13;;;;;;;;;;5055720;28;20190;-65
2022/04/03 01:34:19;;;;;;;3.97;3.40;;;;;;;;;;5037741;28;20412;-68
2022/04/03 01:36:45;;;;;;;4.87;3.23;;;;;;;;;;5055791;28;20887;-65
2022/04/03 01:39:11;;;;;;;5.73;3.70;;;;;;;;;;5055513;28;20413;-65
2022/04/03 01:41:41;;;;;;;5.67;3.37;;;;;;;;;;5055860;28;20436;-66
2022/04/03 01:44:08;;;;;;;3.37;2.83;;;;;;;;;;5037536;28;20414;-64
2022/04/03 01:46:34;;;;;;;4.23;3.10;;;;;;;;;;5055110;28;20460;-65
2022/04/03 01:49:00;;;;;;;5.70;3.13;;;;;;;;;;5037822;28;20457;-65
2022/04/03 01:51:26;;;;;;;4.40;3.20;;;;;;;;;;5037243;28;20448;-66
2022/04/03 01:53:52;;;;;;;3.50;2.80;;;;;;;;;;5055838;28;20405;-64
2022/04/03 01:56:18;;;;;;;4.87;3.37;;;;;;;;;;5055466;28;20186;-65
2022/04/03 01:58:44;;;;;;;3.97;2.73;;;;;;;;;;5055734;28;20178;-65
2022/04/03 02:01:10;;;;;;;6.50;3.10;;;;;;;;;;5055315;28;20182;-64
2022/04/03 02:03:36;;;;;;;4.77;3.40;;;;;;;;;;5038069;28;20181;-65
2022/04/03 02:06:02;;;;;;;5.67;3.30;;;;;;;;;;5054921;28;20670;-63
2022/04/03 02:08:28;;;;;;;7.17;3.00;;;;;;;;;;5037167;28;20178;-64
2022/04/03 02:10:55;;;;;;;5.80;3.50;;;;;;;;;;5037266;28;20462;-65
2022/04/03 02:13:21;;;;;;;6.20;3.30;;;;;;;;;;5037038;28;20194;-65
2022/04/03 02:15:47;;;;;;;5.70;3.10;;;;;;;;;;5037096;28;20416;-64
2022/04/03 02:18:13;;;;;;;3.47;2.73;;;;;;;;;;5055037;28;20410;-65
2022/04/03 02:20:39;;;;;;;4.30;3.13;;;;;;;;;;5055243;28;20178;-65
2022/04/03 02:23:05;;;;;;;3.60;3.00;;;;;;;;;;5055050;28;20206;-64
2022/04/03 02:25:31;;;;;;;5.43;3.23;;;;;;;;;;5036956;28;20425;-65
2022/04/03 02:27:59;;;;;;;5.20;3.87;;;;;;;;;;5036947;28;20788;-66
2022/04/03 02:30:25;;;;;;;6.27;3.37;;;;;;;;;;5055318;28;20411;-64
2022/04/03 02:32:51;;;;;;;5.37;3.17;;;;;;;;;;5054887;28;20459;-65
2022/04/03 02:35:17;;;;;;;3.43;2.77;;;;;;;;;;5054165;28;20405;-65
2022/04/03 02:37:43;;;;;;;4.07;3.20;;;;;;;;;;5055047;28;20212;-65
2022/04/03 02:40:10;;;;;;;5.00;3.33;;;;;;;;;;5037383;28;20413;-65
2022/04/03 02:42:37;;;;;;;5.63;3.23;;;;;;;;;;5054845;28;20425;-65
2022/04/03 02:45:04;;;;;;;4.37;3.00;;;;;;;;;;5054458;28;20409;-64
2022/04/03 02:47:30;;;;;;;6.00;3.30;;;;;;;;;;5055310;28;20485;-63
2022/04/03 02:49:56;;;;;;;6.23;3.10;;;;;;;;;;5054701;28;20415;-65
2022/04/03 02:52:22;;;;;;;7.10;4.00;;;;;;;;;;5054504;28;20522;-65
2022/04/03 02:54:48;;;;;;;5.63;3.60;;;;;;;;;;5054632;28;20178;-65
2022/04/03 02:57:15;;;;;;;6.23;3.63;;;;;;;;;;5036482;28;20186;-65
2022/04/03 02:59:41;;;;;;;5.37;3.90;;;;;;;;;;5054363;28;20488;-65
2022/04/03 03:02:07;;;;;;;7.70;4.03;;;;;;;;;;5054515;28;20506;-67
2022/04/03 03:04:35;;;;;;;5.57;3.63;;;;;;;;;;5054538;28;20413;-66
2022/04/03 03:07:01;;;;;;;4.00;3.27;;;;;;;;;;5036991;28;20471;-65
2022/04/03 03:09:27;;;;;;;4.03;3.30;;;;;;;;;;5054627;28;20441;-65
2022/04/03 03:11:53;;;;;;;8.27;3.13;;;;;;;;;;5036168;28;20436;-64
2022/04/03 03:14:19;;;;;;;5.37;3.70;;;;;;;;;;5054509;28;20174;-65
2022/04/03 03:16:45;;;;;;;6.73;3.83;;;;;;;;;;5036401;28;20233;-64
2022/04/03 03:19:11;;;;;;;5.73;3.73;;;;;;;;;;5036382;28;20510;-65
2022/04/03 03:21:37;;;;;;;5.37;3.33;;;;;;;;;;5054396;28;20237;-65
2022/04/03 03:24:04;;;;;;;6.10;3.40;;;;;;;;;;5036320;28;20190;-64
2022/04/03 03:26:29;;;;;;;4.17;3.33;;;;;;;;;;5054294;28;20460;-65
2022/04/03 03:28:55;;;;;;;10.50;5.77;;;;;;;;;;5054128;28;20428;-66
2022/04/03 03:31:21;;;;;;;14.23;8.47;;;;;;;;;;5036117;28;20230;-65
2022/04/03 03:33:48;;;;;;;20.70;11.27;;;;;;;;;;5054281;28;20174;-65
2022/04/03 03:36:14;;;;;;;26.33;13.17;;;;;;;;;;5053788;28;20221;-66
2022/04/03 03:38:40;;;;;;;29.50;14.57;;;;;;;;;;5035962;28;20413;-66
2022/04/03 03:41:06;;;;;;;21.20;11.87;;;;;;;;;;5054110;28;20425;-64
2022/04/03 03:43:32;;;;;;;26.13;14.30;;;;;;;;;;5053590;28;20411;-65
2022/04/03 03:45:59;;;;;;;31.17;14.83;;;;;;;;;;5053408;28;20456;-63
2022/04/03 03:48:25;;;;;;;19.83;11.40;;;;;;;;;;5055903;28;20735;-65
2022/04/03 03:50:51;;;;;;;23.93;11.87;;;;;;;;;;5057364;28;20402;-65
2022/04/03 03:53:17;;;;;;;17.07;8.47;;;;;;;;;;5057450;28;20452;-65
2022/04/03 03:55:43;;;;;;;6.80;4.83;;;;;;;;;;5057160;28;20410;-65
2022/04/03 03:58:09;;;;;;;7.40;5.13;;;;;;;;;;5039115;28;20943;-65
2022/04/03 04:00:35;;;;;;;6.63;5.00;;;;;;;;;;5038869;28;20413;-65
2022/04/03 04:03:01;;;;;;;6.30;4.00;;;;;;;;;;5056990;28;20218;-65
2022/04/03 04:05:28;;;;;;;7.83;4.10;;;;;;;;;;5038759;28;20408;-66
2022/04/03 04:07:54;;;;;;;7.47;4.00;;;;;;;;;;5057150;28;20773;-65
2022/04/03 04:10:19;;;;;;;6.83;3.87;;;;;;;;;;5056883;28;20496;-66
2022/04/03 04:12:46;;;;;;;5.67;4.20;;;;;;;;;;5056501;28;20431;-65
2022/04/03 04:15:13;;;;;;;8.23;3.60;;;;;;;;;;5038829;28;20182;-65
2022/04/03 04:17:42;;;;;;;6.80;4.00;;;;;;;;;;5038665;28;20416;-66
2022/04/03 04:20:11;;;;;;;6.40;3.53;;;;;;;;;;5038593;28;20423;-65
2022/04/03 04:22:37;;;;;;;5.23;4.13;;;;;;;;;;5056447;28;20921;-65
2022/04/03 04:25:03;;;;;;;5.30;3.63;;;;;;;;;;5056364;28;20791;-63
2022/04/03 04:27:29;;;;;;;7.53;3.53;;;;;;;;;;5056591;28;20464;-66
2022/04/03 04:29:55;;;;;;;7.67;3.90;;;;;;;;;;5056709;28;20178;-65
2022/04/03 04:32:21;;;;;;;5.63;4.00;;;;;;;;;;5056518;28;20528;-65
2022/04/03 04:34:48;;;;;;;5.23;4.03;;;;;;;;;;5072291;22;20230;-64
2022/04/03 04:37:13;;;;;;;6.23;4.07;;;;;;;;;;5038703;28;20449;-65
2022/04/03 04:39:39;;;;;;;5.87;3.90;;;;;;;;;;5038666;28;20419;-64
2022/04/03 04:42:05;;;;;;;5.77;3.97;;;;;;;;;;5038781;28;20186;-64
2022/04/03 04:44:31;;;;;;;5.40;4.20;;;;;;;;;;5038314;28;20583;-64
2022/04/03 04:46:57;;;;;;;5.03;4.17;;;;;;;;;;5057259;28;20456;-65
2022/04/03 04:49:23;;;;;;;5.97;3.70;;;;;;;;;;5038656;28;20269;-64
2022/04/03 04:51:49;;;;;;;6.43;3.57;;;;;;;;;;5056688;28;20174;-65
2022/04/03 04:54:15;;;;;;;7.93;4.03;;;;;;;;;;5038466;28;20293;-64
2022/04/03 04:56:41;;;;;;;6.63;3.77;;;;;;;;;;5038180;28;20187;-64
2022/04/03 04:59:07;;;;;;;4.20;3.70;;;;;;;;;;5055952;28;20183;-64
2022/04/03 05:01:33;;;;;;;4.93;3.63;;;;;;;;;;5038162;28;20420;-64
2022/04/03 05:03:59;;;;;;;6.93;3.30;;;;;;;;;;5056260;28;20202;-65
2022/04/03 05:06:26;;;;;;;3.80;3.20;;;;;;;;;;5056619;28;20209;-64
2022/04/03 05:08:52;;;;;;;4.33;3.33;;;;;;;;;;5056225;28;20416;-64
2022/04/03 05:11:19;;;;;;;5.37;3.43;;;;;;;;;;5055976;28;20409;-66
2022/04/03 05:13:45;;;;;;;6.17;3.67;;;;;;;;;;5037642;28;20425;-66
2022/04/03 05:16:11;;;;;;;5.83;3.70;;;;;;;;;;5055731;28;20419;-66
2022/04/03 05:18:37;;;;;;;4.60;3.60;;;;;;;;;;5055631;28;20449;-66
2022/04/03 05:21:06;;;;;;;7.27;4.17;;;;;;;;;;5037788;28;20456;-66
2022/04/03 05:23:32;;;;;;;8.10;4.60;;;;;;;;;;5037634;28;20579;-66
2022/04/03 05:25:58;;;;;;;5.67;3.90;;;;;;;;;;5037600;28;20468;-66
2022/04/03 05:28:26;;;;;;;7.50;4.60;;;;;;;;;;5037946;28;20793;-66
2022/04/03 05:30:52;;;;;;;6.20;3.93;;;;;;;;;;5038481;28;20499;-65
2022/04/03 05:33:18;;;;;;;7.90;4.03;;;;;;;;;;5038453;28;20413;-66
2022/04/03 05:35:44;;;;;;;9.17;4.30;;;;;;;;;;5037920;28;20441;-66
2022/04/03 05:38:11;;;;;;;8.23;5.20;;;;;;;;;;5056060;28;20469;-66
2022/04/03 05:40:38;;;;;;;10.67;4.70;;;;;;;;;;5055816;28;20197;-65
2022/04/03 05:43:04;;;;;;;11.20;4.30;;;;;;;;;;5055714;28;20885;-64
2022/04/03 05:45:30;;;;;;;11.77;4.70;;;;;;;;;;5055781;28;20792;-64
2022/04/03 05:47:56;;;;;;;8.77;4.63;;;;;;;;;;5056425;28;20802;-64
2022/04/03 05:50:23;;;;;;;5.20;4.33;;;;;;;;;;5055492;28;20406;-66
2022/04/03 05:52:50;;;;;;;8.13;4.33;;;;;;;;;;5037793;28;20417;-67
2022/04/03 05:55:20;;;;;;;7.70;3.90;;;;;;;;;;5038165;28;20437;-66
2022/04/03 05:57:48;;;;;;;7.20;4.27;;;;;;;;;;5055902;28;20393;-67
2022/04/03 06:00:15;;;;;;;6.13;3.60;;;;;;;;;;5037200;28;20413;-67
2022/04/03 06:02:48;;;;;;;3.60;3.07;;;;;;;;;;5054601;28;20408;-67
2022/04/03 06:05:14;;;;;;;5.80;3.50;;;;;;;;;;5054317;28;20186;-66
2022/04/03 06:07:40;;;;;;;4.33;3.10;;;;;;;;;;5054397;28;20527;-66
2022/04/03 06:10:06;;;;;;;5.27;3.40;;;;;;;;;;5058522;28;20174;-66
2022/04/03 06:12:32;;;;;;;5.77;3.67;;;;;;;;;;5060929;28;20692;-64
2022/04/03 06:14:58;;;;;;;7.87;4.30;;;;;;;;;;5043573;28;20204;-64
2022/04/03 06:17:24;;;;;;;10.70;4.20;;;;;;;;;;5060539;28;20601;-64
2022/04/03 06:19:50;;;;;;;5.20;3.50;;;;;;;;;;5055211;28;20228;-65
2022/04/03 06:22:16;;;;;;;4.67;3.20;;;;;;;;;;5037127;28;20186;-64
2022/04/03 06:24:42;;;;;;;4.33;3.20;;;;;;;;;;5036231;28;20680;-64
2022/04/03 06:27:08;;;;;;;5.70;3.77;;;;;;;;;;5054237;28;20206;-66
2022/04/03 06:29:34;;;;;;;5.30;3.30;;;;;;;;;;5053876;28;20265;-64
2022/04/03 06:32:00;;;;;;;3.90;2.77;;;;;;;;;;5036065;28;20179;-65
2022/04/03 06:34:26;;;;;;;3.40;2.77;;;;;;;;;;5053782;28;20210;-64
2022/04/03 06:36:53;;;;;;;4.83;3.60;;;;;;;;;;5035954;28;20178;-64
2022/04/03 06:39:19;;;;;;;6.00;3.73;;;;;;;;;;5035833;28;20277;-64
2022/04/03 06:41:45;;;;;;;7.83;4.00;;;;;;;;;;5054031;28;20202;-64
2022/04/03 06:44:12;;;;;;;4.80;3.27;;;;;;;;;;5036009;28;20279;-65
2022/04/03 06:46:38;;;;;;;5.50;3.30;;;;;;;;;;5053582;28;20255;-65
2022/04/03 06:49:04;;;;;;;8.53;3.50;;;;;;;;;;5053581;28;20178;-65
2022/04/03 06:51:30;;;;;;;5.53;2.97;;;;;;;;;;5053823;28;20254;-64
2022/04/03 06:53:56;;;;;;;5.33;3.43;;;;;;;;;;5035590;28;20639;-64
2022/04/03 06:56:22;;;;;;;4.67;3.87;;;;;;;;;;5053871;28;20189;-65
2022/04/03 06:58:48;;;;;;;5.47;3.77;;;;;;;;;;5053438;28;20178;-64
2022/04/03 07:01:14;;;;;;;6.03;4.17;;;;;;;;;;5054233;28;20184;-64
2022/04/03 07:03:40;;;;;;;7.37;3.70;;;;;;;;;;5053514;28;20179;-64
2022/04/03 07:06:06;;;;;;;3.90;3.03;;;;;;;;;;5052976;28;20245;-65
2022/04/03 07:08:32;;;;;;;3.67;2.80;;;;;;;;;;5053512;28;20174;-64
2022/04/03 07:10:58;;;;;;;6.27;3.30;;;;;;;;;;5035519;28;20186;-64
2022/04/03 07:13:24;;;;;;;5.53;3.00;;;;;;;;;;5054007;28;20175;-64
2022/04/03 07:15:50;;;;;;;3.67;2.93;;;;;;;;;;5035565;28;20689;-64
2022/04/03 07:18:16;;;;;;;5.30;3.47;;;;;;;;;;5035547;28;20174;-64
2022/04/03 07:20:43;;;;;;;3.67;2.87;;;;;;;;;;5035576;28;20182;-64
2022/04/03 07:23:08;;;;;;;4.33;3.50;;;;;;;;;;5038571;28;20183;-64
2022/04/03 07:25:34;;;;;;;4.03;3.10;;;;;;;;;;5057352;28;20206;-64
2022/04/03 07:28:00;;;;;;;5.20;3.40;;;;;;;;;;5058320;28;20210;-64
2022/04/03 07:30:26;;;;;;;4.07;2.87;;;;;;;;;;5059730;28;20232;-65
2022/04/03 07:32:52;;;;;;;5.10;2.70;;;;;;;;;;5039944;28;20276;-64
2022/04/03 07:35:18;;;;;;;3.93;2.70;;;;;;;;;;5056778;28;20317;-64
2022/04/03 07:37:44;;;;;;;3.67;2.87;;;;;;;;;;5039112;28;20634;-64
2022/04/03 07:40:11;;;;;;;3.33;2.80;;;;;;;;;;5057350;28;20170;-64
2022/04/03 07:42:39;;;;;;;5.70;3.03;;;;;;;;;;5057003;28;20178;-66
2022/04/03 07:45:05;;;;;;;3.77;3.37;;;;;;;;;;5057240;28;20221;-67
2022/04/03 07:47:31;;;;;;;4.63;3.10;;;;;;;;;;5038678;28;20209;-66
2022/04/03 07:49:59;;;;;;;5.80;3.10;;;;;;;;;;5038729;28;20182;-65
2022/04/03 07:52:25;;;;;;;4.53;2.90;;;;;;;;;;5038619;28;20178;-65
2022/04/03 07:54:51;;;;;;;7.70;3.93;;;;;;;;;;5038523;28;20194;-65
2022/04/03 07:57:20;;;;;;;4.63;3.13;;;;;;;;;;5056473;28;20182;-65
2022/04/03 07:59:46;;;;;;;4.33;2.90;;;;;;;;;;5056423;28;20183;-65
2022/04/03 08:02:13;;;;;;;5.00;2.73;;;;;;;;;;5038481;28;20222;-64
2022/04/03 08:04:39;;;;;;;5.07;2.73;;;;;;;;;;5056189;28;20205;-65
2022/04/03 08:07:05;;;;;;;5.93;3.60;;;;;;;;;;5056714;28;20636;-64
2022/04/03 08:09:30;;;;;;;5.57;3.43;;;;;;;;;;5038342;28;20529;-64
2022/04/03 08:11:56;;;;;;;5.37;3.13;;;;;;;;;;5056446;28;20170;-65
2022/04/03 08:14:23;;;;;;;3.33;2.73;;;;;;;;;;5037968;28;20250;-65
2022/04/03 08:16:49;;;;;;;3.10;2.63;;;;;;;;;;5056243;28;20257;-65
2022/04/03 08:19:16;;;;;;;5.33;2.80;;;;;;;;;;5038046;28;20221;-64
2022/04/03 08:21:42;;;;;;;3.73;2.93;;;;;;;;;;5056224;28;20178;-64
2022/04/03 08:24:08;;;;;;;4.73;3.40;;;;;;;;;;5056243;28;20289;-64
2022/04/03 08:26:34;;;;;;;5.47;3.40;;;;;;;;;;5037944;28;20202;-64
2022/04/03 08:29:00;;;;;;;3.80;3.40;;;;;;;;;;5055968;28;20182;-64
2022/04/03 08:31:27;;;;;;;2.97;2.60;;;;;;;;;;5037937;28;20182;-66
2022/04/03 08:33:54;;;;;;;6.20;2.80;;;;;;;;;;5055140;28;20524;-64
2022/04/03 08:36:19;;;;;;;2.97;2.67;;;;;;;;;;5056183;28;20194;-64
2022/04/03 08:38:46;;;;;;;5.30;2.67;;;;;;;;;;5055563;28;20546;-64
2022/04/03 08:41:12;;;;;;;2.43;2.23;;;;;;;;;;5055872;28;20681;-64
2022/04/03 08:43:40;;;;;;;2.23;2.03;;;;;;;;;;5037984;28;20625;-66
2022/04/03 08:46:07;;;;;;;3.13;2.10;;;;;;;;;;5037636;28;20689;-66
2022/04/03 08:48:33;;;;;;;3.23;2.77;;;;;;;;;;5055267;28;20178;-66
2022/04/03 08:51:03;;;;;;;4.83;2.50;;;;;;;;;;5055898;28;20229;-66
2022/04/03 08:53:30;;;;;;;3.47;2.30;;;;;;;;;;5037693;28;20178;-66
2022/04/03 08:55:56;;;;;;;2.77;2.27;;;;;;;;;;5055389;28;20281;-66
2022/04/03 08:58:22;;;;;;;3.50;2.47;;;;;;;;;;5055306;28;20218;-66
2022/04/03 09:00:48;;;;;;;3.93;2.40;;;;;;;;;;5055557;28;20175;-66
2022/04/03 09:03:14;;;;;;;3.50;2.80;;;;;;;;;;5055272;28;20170;-67
2022/04/03 09:05:41;;;;;;;3.67;2.90;;;;;;;;;;5055054;28;20199;-66
2022/04/03 09:08:08;;;;;;;2.63;2.10;;;;;;;;;;5055706;28;20175;-66
2022/04/03 09:10:34;;;;;;;5.00;2.40;;;;;;;;;;5037368;28;20184;-66
2022/04/03 09:13:00;;;;;;;2.87;2.23;;;;;;;;;;5055374;28;20551;-66
2022/04/03 09:15:27;;;;;;;3.00;2.13;;;;;;;;;;5055001;28;20209;-66
2022/04/03 09:17:54;;;;;;;5.30;2.13;;;;;;;;;;5055657;28;20517;-66
2022/04/03 09:20:22;;;;;;;3.67;2.10;;;;;;;;;;5054930;28;20187;-66
2022/04/03 09:22:56;;;;;;;2.37;1.90;;;;;;;;;;5054894;28;20179;-66
2022/04/03 09:25:29;;;;;;;4.67;2.57;;;;;;;;;;5054821;28;20194;-66
2022/04/03 09:27:56;;;;;;;7.73;2.30;;;;;;;;;;5054834;28;20264;-66
2022/04/03 09:30:24;;;;;;;2.30;1.90;;;;;;;;;;5036878;28;20182;-68
2022/04/03 09:32:57;;;;;;;3.97;2.00;;;;;;;;;;5037033;28;20224;-66
2022/04/03 09:35:30;;;;;;;4.63;2.90;;;;;;;;;;5054350;28;20221;-66
2022/04/03 09:38:13;;;;;;;5.30;3.23;;;;;;;;;;5054605;28;20253;-66
2022/04/03 09:40:40;;;;;;;2.67;1.80;;;;;;;;;;5054733;28;20178;-66
2022/04/03 09:43:12;;;;;;;3.43;2.03;;;;;;;;;;5036604;28;20273;-66
2022/04/03 09:45:49;;;;;;;3.13;1.97;;;;;;;;;;5053659;28;20205;-66
2022/04/03 09:48:20;;;;;;;3.13;2.20;;;;;;;;;;5054306;28;20231;-66
2022/04/03 09:50:56;;;;;;;3.27;2.10;;;;;;;;;;5054341;28;20174;-67
2022/04/03 09:53:22;;;;;;;2.07;1.87;;;;;;;;;;5054421;28;20201;-66
2022/04/03 09:55:48;;;;;;;3.80;2.07;;;;;;;;;;5054072;28;20670;-66
2022/04/03 09:58:15;;;;;;;2.67;2.07;;;;;;;;;;5054072;28;20178;-66
2022/04/03 10:00:41;;;;;;;2.27;1.80;;;;;;;;;;5054131;28;20199;-66
2022/04/03 10:03:10;;;;;;;3.63;2.10;;;;;;;;;;5054631;28;20171;-66
2022/04/03 10:05:36;;;;;;;3.60;1.97;;;;;;;;;;5054288;28;20240;-67
2022/04/03 10:08:03;;;;;;;3.30;1.60;;;;;;;;;;5054204;28;20276;-66
2022/04/03 10:10:29;;;;;;;1.83;1.70;;;;;;;;;;5036081;28;20174;-66
2022/04/03 10:12:56;;;;;;;3.47;2.00;;;;;;;;;;5036227;28;20601;-66
2022/04/03 10:15:25;;;;;;;3.87;1.90;;;;;;;;;;5054188;28;20677;-66
2022/04/03 10:17:52;;;;;;;3.10;1.73;;;;;;;;;;5054193;28;20258;-66
2022/04/03 10:20:18;;;;;;;5.37;1.87;;;;;;;;;;5053835;28;20258;-66
2022/04/03 10:22:46;;;;;;;8.87;2.07;;;;;;;;;;5053597;28;20192;-67
2022/04/03 10:25:14;;;;;;;4.50;1.77;;;;;;;;;;5053650;28;20234;-66
2022/04/03 10:27:43;;;;;;;2.73;1.50;;;;;;;;;;5035917;28;20283;-67
2022/04/03 10:30:10;;;;;;;2.63;1.63;;;;;;;;;;5053709;28;20175;-66
2022/04/03 10:32:36;;;;;;;3.30;1.67;;;;;;;;;;5053820;28;20518;-66
2022/04/03 10:35:07;;;;;;;1.77;1.63;;;;;;;;;;5053416;28;20217;-66
2022/04/03 10:37:40;;;;;;;3.27;2.07;;;;;;;;;;5035618;28;20243;-67
2022/04/03 10:40:11;;;;;;;1.97;1.70;;;;;;;;;;5069560;22;20280;-66
2022/04/03 10:42:50;;;;;;;3.57;1.80;;;;;;;;;;5053651;28;20254;-66
2022/04/03 10:45:16;;;;;;;3.67;1.77;;;;;;;;;;5053707;28;20174;-66
2022/04/03 10:47:43;;;;;;;2.47;1.47;;;;;;;;;;5053572;28;20229;-65
2022/04/03 10:50:10;;;;;;;2.90;1.80;;;;;;;;;;5035485;28;20291;-66
2022/04/03 10:52:42;;;;;;;4.03;1.80;;;;;;;;;;5053863;28;20174;-66
2022/04/03 10:55:12;;;;;;;3.23;1.93;;;;;;;;;;5035514;28;20175;-66
2022/04/03 10:57:42;;;;;;;2.03;1.70;;;;;;;;;;5052936;28;20178;-67
2022/04/03 11:00:14;;;;;;;3.67;1.50;;;;;;;;;;5035457;28;20213;-66
2022/04/03 11:02:45;;;;;;;4.47;1.57;;;;;;;;;;5053390;28;20174;-65
2022/04/03 11:05:29;;;;;;;2.50;1.93;;;;;;;;;;5053199;28;20178;-66
2022/04/03 11:08:00;;;;;;;2.20;2.00;;;;;;;;;;5053599;28;20554;-66
2022/04/03 11:10:48;;;;;;;3.60;1.70;;;;;;;;;;5053045;28;20190;-66
2022/04/03 11:13:15;;;;;;;1.93;1.67;;;;;;;;;;5035374;28;20559;-66
2022/04/03 11:15:59;;;;;;;4.30;1.90;;;;;;;;;;5053223;28;20658;-65
2022/04/03 11:18:25;;;;;;;2.70;1.67;;;;;;;;;;5053160;28;20174;-66
2022/04/03 11:21:04;;;;;;;3.00;2.00;;;;;;;;;;5053027;28;20201;-65
2022/04/03 11:23:30;;;;;;;2.23;1.70;;;;;;;;;;5035239;28;20229;-67
2022/04/03 11:25:57;;;;;;;2.13;1.77;;;;;;;;;;5053416;28;20182;-64
2022/04/03 11:28:23;;;;;;;2.73;1.93;;;;;;;;;;5053275;28;20177;-66
2022/04/03 11:30:50;;;;;;;2.40;1.50;;;;;;;;;;5035072;28;20202;-65
2022/04/03 11:33:16;;;;;;;3.87;1.80;;;;;;;;;;5053295;28;20170;-64
2022/04/03 11:35:42;;;;;;;4.37;2.70;;;;;;;;;;5053357;28;20681;-66
2022/04/03 11:38:09;;;;;;;2.20;1.90;;;;;;;;;;5053258;28;20175;-65
2022/04/03 11:40:35;;;;;;;2.33;1.77;;;;;;;;;;5052736;28;20218;-65
2022/04/03 11:43:09;;;;;;;2.87;1.83;;;;;;;;;;5035175;28;20212;-67
2022/04/03 11:45:35;;;;;;;2.27;2.03;;;;;;;;;;5035126;28;20186;-65
2022/04/03 11:48:13;;;;;;;4.10;2.27;;;;;;;;;;5052768;28;20206;-67
2022/04/03 11:50:39;;;;;;;3.70;1.73;;;;;;;;;;5034947;28;20260;-67
2022/04/03 11:53:09;;;;;;;2.83;1.70;;;;;;;;;;5053501;28;20175;-66
2022/04/03 11:55:35;;;;;;;1.90;1.53;;;;;;;;;;5035082;28;20178;-66
2022/04/03 11:58:04;;;;;;;3.50;2.60;;;;;;;;;;5035134;28;20190;-67
2022/04/03 12:00:31;;;;;;;3.60;1.87;;;;;;;;;;5035336;28;20556;-66
2022/04/03 12:03:00;;;;;;;2.37;1.70;;;;;;;;;;5053132;28;20210;-66
2022/04/03 12:05:26;;;;;;;2.80;1.60;;;;;;;;;;5053235;28;20179;-67
2022/04/03 12:07:52;;;;;;;1.90;1.70;;;;;;;;;;5052897;28;20658;-67
2022/04/03 12:10:28;;;;;;;3.27;1.60;;;;;;;;;;5055870;28;20721;-67
2022/04/03 12:12:58;;;;;;;3.57;1.90;;;;;;;;;;5056500;28;20230;-67
2022/04/03 12:15:25;;;;;;;2.53;1.67;;;;;;;;;;5038380;28;20179;-67
2022/04/03 12:17:57;;;;;;;2.57;1.80;;;;;;;;;;5056570;28;20727;-69
2022/04/03 12:20:23;;;;;;;2.50;2.30;;;;;;;;;;5056109;28;20205;-67
2022/04/03 12:22:50;;;;;;;7.00;2.60;;;;;;;;;;5056488;28;20192;-70
2022/04/03 12:25:17;;;;;;;4.50;2.20;;;;;;;;;;5056433;28;20205;-68
2022/04/03 12:27:43;;;;;;;6.47;2.40;;;;;;;;;;5038114;28;20674;-68
2022/04/03 12:30:09;;;;;;;4.43;2.60;;;;;;;;;;5056317;28;20575;-67
2022/04/03 12:32:36;;;;;;;4.70;1.90;;;;;;;;;;5038051;28;20265;-67
2022/04/03 12:35:05;;;;;;;3.23;2.23;;;;;;;;;;5038269;28;20182;-67
2022/04/03 12:37:34;;;;;;;3.57;2.53;;;;;;;;;;5056522;28;20694;-68
2022/04/03 12:40:00;;;;;;;5.07;2.93;;;;;;;;;;5055966;28;20237;-68
2022/04/03 12:42:35;;;;;;;4.07;2.33;;;;;;;;;;5037907;28;20647;-69
2022/04/03 12:45:03;;;;;;;3.27;2.13;;;;;;;;;;5056820;28;20185;-68
2022/04/03 12:47:47;;;;;;;3.47;2.37;;;;;;;;;;5055896;28;20202;-69
2022/04/03 12:50:16;;;;;;;2.53;2.33;;;;;;;;;;5055735;28;20217;-68
2022/04/03 12:52:48;;;;;;;2.60;2.03;;;;;;;;;;5038065;28;20198;-68
2022/04/03 12:55:24;;;;;;;2.97;2.40;;;;;;;;;;5055753;28;20228;-67
2022/04/03 13:00:48;;;;;;;3.73;2.30;;;;;;;;;;5055255;28;20206;-63
2022/04/03 13:03:26;;;;;;;2.63;1.97;;;;;;;;;;5055278;28;20523;-66
2022/04/03 13:05:56;;;;;;;3.03;1.83;;;;;;;;;;5037305;28;20179;-66
2022/04/03 13:08:22;;;;;;;2.40;2.10;;;;;;;;;;5055494;28;20688;-66
2022/04/03 13:10:51;;;;;;;2.83;2.03;;;;;;;;;;5055373;28;20194;-67
2022/04/03 13:13:25;;;;;;;2.10;1.90;;;;;;;;;;5055625;28;20235;-65
2022/04/03 13:15:52;;;;;;;2.57;2.30;;;;;;;;;;5055394;28;20569;-65
2022/04/03 13:18:18;;;;;;;3.63;1.80;;;;;;;;;;5055364;28;20546;-65
2022/04/03 13:20:51;;;;;;;2.77;1.97;;;;;;;;;;5054597;28;20193;-65
2022/04/03 13:23:18;;;;;;;2.40;2.00;;;;;;;;;;5037056;28;20201;-65
2022/04/03 13:25:44;;;;;;;2.97;1.90;;;;;;;;;;5054908;28;20175;-63
2022/04/03 13:28:10;;;;;;;3.20;1.93;;;;;;;;;;5054801;28;20251;-66
2022/04/03 13:30:36;;;;;;;2.97;2.10;;;;;;;;;;5036791;28;20569;-66
2022/04/03 13:33:02;;;;;;;2.43;2.23;;;;;;;;;;5036899;28;20182;-66
2022/04/03 13:35:28;;;;;;;2.20;2.00;;;;;;;;;;5054915;28;20175;-67
2022/04/03 13:37:54;;;;;;;2.27;2.00;;;;;;;;;;5036756;28;20187;-65
2022/04/03 13:40:20;;;;;;;3.20;2.13;;;;;;;;;;5036415;28;20319;-66
2022/04/03 13:42:46;;;;;;;3.00;2.03;;;;;;;;;;5054688;28;20647;-67
2022/04/03 13:45:12;;;;;;;4.07;2.00;;;;;;;;;;5054917;28;20175;-66
2022/04/03 13:47:39;;;;;;;2.60;2.20;;;;;;;;;;5054533;28;20198;-66
2022/04/03 13:50:05;;;;;;;4.43;2.50;;;;;;;;;;5036335;28;20202;-68
2022/04/03 13:52:31;;;;;;;3.20;2.00;;;;;;;;;;5054257;28;20185;-67
2022/04/03 13:54:57;;;;;;;7.97;2.67;;;;;;;;;;5054306;28;20217;-66
2022/04/03 13:57:24;;;;;;;3.33;2.57;;;;;;;;;;5036407;28;20216;-66
2022/04/03 13:59:51;;;;;;;3.80;2.37;;;;;;;;;;5036264;28;20202;-66
2022/04/03 14:02:17;;;;;;;3.67;2.23;;;;;;;;;;5054045;28;20261;-67
2022/04/03 14:04:43;;;;;;;6.00;1.80;;;;;;;;;;5053967;28;20177;-66
2022/04/03 14:07:09;;;;;;;2.73;2.37;;;;;;;;;;5054112;28;20209;-66
2022/04/03 14:09:35;;;;;;;4.13;3.03;;;;;;;;;;5035931;28;20205;-66
2022/04/03 14:12:01;;;;;;;4.57;2.50;;;;;;;;;;5053794;28;20174;-65
2022/04/03 14:14:27;;;;;;;2.37;1.87;;;;;;;;;;5035968;28;20505;-66
2022/04/03 14:16:53;;;;;;;2.43;1.87;;;;;;;;;;5054167;28;20178;-65
2022/04/03 14:19:20;;;;;;;1.93;1.50;;;;;;;;;;5035810;28;20636;-65
2022/04/03 14:21:46;;;;;;;3.07;1.43;;;;;;;;;;5035812;28;20646;-65
2022/04/03 14:24:12;;;;;;;2.57;1.60;;;;;;;;;;5053557;28;20189;-64
2022/04/03 14:26:38;;;;;;;11.27;10.17;;;;;;;;;;5035699;28;20202;-64
2022/04/03 14:29:04;;;;;;;3.33;2.07;;;;;;;;;;5035674;28;20179;-65
2022/04/03 14:31:31;;;;;;;2.00;1.90;;;;;;;;;;5053541;28;20629;-65
2022/04/03 14:33:56;;;;;;;2.10;1.80;;;;;;;;;;5035426;28;20635;-65
2022/04/03 14:36:22;;;;;;;4.33;2.37;;;;;;;;;;5053711;28;20178;-65
2022/04/03 14:38:48;;;;;;;2.50;2.10;;;;;;;;;;5053479;28;20210;-65
2022/04/03 14:41:14;;;;;;;3.77;1.90;;;;;;;;;;5035408;28;20222;-65
2022/04/03 14:43:45;;;;;;;1.90;1.80;;;;;;;;;;5053549;28;20691;-65
2022/04/03 14:46:11;;;;;;;2.50;1.80;;;;;;;;;;5035411;28;20186;-66